Terminal Aerodrome Forecast
Issued by NWS

Home | Current Version | Previous Version | Text Only | Print | Product List | Glossary On
Versions: 1 2 3 4 5 6 7 8 9 10 11 12 13 14 15
863
FTUS43 KAPX 312320
TAFMBL
TAF
KMBL 312320Z 0100/0124 31006KT P6SM SCT200
     FM010300 12009KT P6SM SCT250
     FM011200 13011KT P6SM SHRA BKN090
     FM011500 16010KT P6SM SHRA BKN060
     FM011800 18009KT P6SM VCSH BKN025
     FM012000 19008KT P6SM VCSH BKN040
      AMD LTD TO CLD VIS AND WIND=

USA.gov is the U.S. government's official web portal to all federal, state and local government web resources and services.